TimePST,TemperatureF,Dew PointF,Humidity,Sea Level PressureIn,VisibilityMPH,Wind Direction,Wind SpeedMPH,Gust SpeedMPH,PrecipitationIn,Events,Conditions,WindDirDegrees,DateUTC
12:56 AM,35.1,32.0,89,30.49,10.0,Variable,4.6,-,N/A,,Clear,0,2013-02-02 08:56:00
1:56 AM,36.0,33.1,89,30.50,10.0,Calm,Calm,-,N/A,,Clear,0,2013-02-02 09:56:00
2:56 AM,35.1,32.0,89,30.50,10.0,ENE,3.5,-,N/A,,Clear,70,2013-02-02 10:56:00
3:56 AM,34.0,32.0,92,30.50,10.0,ESE,6.9,-,N/A,,Clear,110,2013-02-02 11:56:00
4:56 AM,33.1,30.9,92,30.51,10.0,SSE,4.6,-,N/A,,Clear,160,2013-02-02 12:56:00
5:56 AM,33.1,30.9,92,30.50,10.0,ESE,5.8,-,N/A,,Clear,120,2013-02-02 13:56:00
6:56 AM,35.1,32.0,89,30.50,10.0,East,11.5,16.1,N/A,,Clear,80,2013-02-02 14:56:00
7:56 AM,35.1,32.0,89,30.51,10.0,East,6.9,-,N/A,,Clear,100,2013-02-02 15:56:00
8:56 AM,37.0,32.0,82,30.50,10.0,ENE,6.9,-,N/A,,Clear,70,2013-02-02 16:56:00
9:56 AM,41.0,33.1,73,30.50,10.0,ENE,9.2,-,N/A,,Clear,70,2013-02-02 17:56:00
10:56 AM,44.1,34.0,68,30.49,10.0,ENE,12.7,-,N/A,,Clear,70,2013-02-02 18:56:00
11:56 AM,46.0,34.0,63,30.46,10.0,ENE,11.5,-,N/A,,Clear,70,2013-02-02 19:56:00
12:56 PM,48.0,34.0,58,30.42,10.0,East,10.4,-,N/A,,Clear,80,2013-02-02 20:56:00
1:56 PM,51.8,33.8,50,30.36,10.0,ENE,8.1,-,N/A,,Clear,70,2013-02-02 21:56:00
2:56 PM,51.1,35.1,54,30.38,10.0,ENE,9.2,-,N/A,,Clear,70,2013-02-02 22:56:00
3:56 PM,51.8,33.8,50,30.33,10.0,East,6.9,-,N/A,,Clear,80,2013-02-02 23:56:00
4:56 PM,46.0,34.0,63,30.36,10.0,East,8.1,-,N/A,,Clear,90,2013-02-03 00:56:00
5:56 PM,42.1,33.1,70,30.34,10.0,East,8.1,-,N/A,,Clear,90,2013-02-03 01:56:00
6:56 PM,45.0,34.0,65,30.32,10.0,East,10.4,-,N/A,,Clear,80,2013-02-03 02:56:00
7:56 PM,43.0,33.1,68,30.30,10.0,East,6.9,-,N/A,,Clear,90,2013-02-03 03:56:00
8:56 PM,41.0,32.0,70,30.28,10.0,SE,5.8,-,N/A,,Clear,140,2013-02-03 04:56:00
9:56 PM,39.9,32.0,73,30.29,10.0,ENE,3.5,-,N/A,,Clear,70,2013-02-03 05:56:00
10:56 PM,37.9,33.1,83,30.27,10.0,SSW,3.5,-,N/A,,Clear,200,2013-02-03 06:56:00